Time;durP1;ratioP1;P1;durP2;ratioP2;P2;SDS_P1;SDS_P2;PMS_P1;PMS_P2;Temp;Humidity;BMP_temperature;BMP_pressure;BME280_temperature;BME280_humidity;BME280_pressure;Samples;Min_cycle;Max_cycle;Signal;HPM_P1;HPM_P2
2021/03/16 00:01:08;;;;;;;4.40;3.83;;;4.80;99.90;;;;;;5077794;28;20225;-79
2021/03/16 00:03:35;;;;;;;5.78;4.68;;;4.70;99.90;;;;;;5078375;28;20227;-78
2021/03/16 00:06:01;;;;;;;9.90;5.00;;;4.70;99.90;;;;;;5075596;28;20194;-79
2021/03/16 00:08:27;;;;;;;5.45;4.18;;;4.80;99.90;;;;;;5072370;28;20207;-79
2021/03/16 00:10:54;;;;;;;7.32;4.45;;;4.80;99.90;;;;;;5068275;28;20203;-79
2021/03/16 00:13:20;;;;;;;4.15;3.75;;;4.80;99.90;;;;;;5057174;28;20258;-79
2021/03/16 00:15:46;;;;;;;4.03;3.70;;;4.70;99.90;;;;;;5059222;28;20202;-78
2021/03/16 00:18:14;;;;;;;3.72;3.33;;;4.60;99.90;;;;;;5057667;28;20203;-79
2021/03/16 00:20:42;;;;;;;5.18;4.68;;;4.50;99.90;;;;;;5056637;28;20206;-79
2021/03/16 00:23:08;;;;;;;6.68;4.43;;;4.60;99.90;;;;;;5056278;28;20234;-79
2021/03/16 00:25:34;;;;;;;3.83;3.30;;;4.50;99.90;;;;;;5059065;28;20248;-79
2021/03/16 00:28:00;;;;;;;4.72;4.03;;;4.50;99.90;;;;;;5061168;28;20272;-79
2021/03/16 00:30:27;;;;;;;4.22;3.83;;;4.50;99.90;;;;;;5060106;28;20207;-79
2021/03/16 00:32:53;;;;;;;5.28;4.13;;;4.50;99.90;;;;;;5057689;28;20219;-79
2021/03/16 00:35:19;;;;;;;6.15;4.65;;;4.50;99.90;;;;;;5057109;28;20210;-79
2021/03/16 00:37:46;;;;;;;5.95;4.22;;;4.50;99.90;;;;;;5057016;28;20203;-79
2021/03/16 00:40:13;;;;;;;6.78;5.30;;;4.60;99.90;;;;;;5058686;28;20226;-79
2021/03/16 00:42:40;;;;;;;7.03;4.78;;;4.60;99.90;;;;;;5056877;28;20230;-79
2021/03/16 00:45:08;;;;;;;5.03;4.40;;;4.40;99.90;;;;;;5057709;28;20207;-79
2021/03/16 00:47:34;;;;;;;6.70;4.80;;;4.40;99.90;;;;;;5060020;28;20222;-79
2021/03/16 00:50:02;;;;;;;6.80;5.63;;;4.50;99.90;;;;;;5067632;28;20253;-79
2021/03/16 00:52:28;;;;;;;4.63;4.22;;;4.40;99.90;;;;;;5070480;28;20242;-79
2021/03/16 00:54:55;;;;;;;6.03;4.50;;;4.50;99.90;;;;;;5070888;28;20225;-80
2021/03/16 00:57:21;;;;;;;5.13;4.63;;;4.60;99.90;;;;;;5059575;28;20202;-79
2021/03/16 00:59:47;;;;;;;8.00;5.43;;;4.60;99.90;;;;;;5058218;28;20688;-79
2021/03/16 01:02:13;;;;;;;4.63;3.90;;;4.50;99.90;;;;;;5057591;28;20706;-79
2021/03/16 01:04:39;;;;;;;4.75;4.30;;;4.40;99.90;;;;;;5056772;28;20203;-80
2021/03/16 01:07:06;;;;;;;4.70;3.92;;;4.40;99.90;;;;;;5056963;28;20219;-79
2021/03/16 01:09:32;;;;;;;4.32;3.90;;;4.40;99.90;;;;;;5061325;28;20202;-79
2021/03/16 01:11:59;;;;;;;6.70;4.68;;;4.30;99.90;;;;;;5072729;28;20236;-79
2021/03/16 01:14:25;;;;;;;5.60;4.50;;;4.50;99.90;;;;;;5058457;28;20280;-80
2021/03/16 01:16:51;;;;;;;6.75;4.43;;;4.40;99.90;;;;;;5058228;28;20206;-80
2021/03/16 01:19:17;;;;;;;7.22;5.07;;;4.40;99.90;;;;;;5058575;28;20214;-80
2021/03/16 01:21:43;;;;;;;5.57;3.63;;;4.50;99.90;;;;;;5058885;28;20253;-78
2021/03/16 01:24:10;;;;;;;6.72;4.30;;;4.40;99.90;;;;;;5056995;28;20597;-78
2021/03/16 01:26:36;;;;;;;5.88;4.60;;;4.50;99.90;;;;;;5055771;28;20226;-78
2021/03/16 01:29:04;;;;;;;9.00;5.15;;;4.50;99.90;;;;;;5057386;28;20203;-78
2021/03/16 01:31:30;;;;;;;5.90;5.30;;;4.50;99.90;;;;;;5059232;28;20207;-78
2021/03/16 01:33:56;;;;;;;6.90;4.78;;;4.40;99.90;;;;;;5062674;28;20269;-79
2021/03/16 01:36:22;;;;;;;6.57;5.05;;;4.40;99.90;;;;;;5065142;28;20222;-77
2021/03/16 01:38:48;;;;;;;7.25;5.03;;;4.40;99.90;;;;;;5067278;28;20207;-78
2021/03/16 01:41:15;;;;;;;7.30;6.22;;;4.40;99.90;;;;;;5066125;28;20218;-79
2021/03/16 01:43:41;;;;;;;8.63;4.18;;;4.50;99.90;;;;;;5064331;28;20223;-78
2021/03/16 01:46:08;;;;;;;6.28;5.25;;;4.40;99.90;;;;;;5064140;28;20207;-79
2021/03/16 01:48:35;;;;;;;8.68;6.07;;;4.50;99.90;;;;;;5063354;28;20210;-79
2021/03/16 01:51:04;;;;;;;9.55;6.97;;;4.40;99.90;;;;;;5059450;28;20222;-79
2021/03/16 01:53:30;;;;;;;9.65;7.07;;;4.40;99.90;;;;;;5058959;28;20219;-79
2021/03/16 01:55:58;;;;;;;8.52;6.47;;;4.50;99.90;;;;;;5056353;28;20203;-79
2021/03/16 01:58:24;;;;;;;10.55;5.20;;;4.50;99.90;;;;;;5056161;28;20191;-79
2021/03/16 02:00:50;;;;;;;10.40;7.47;;;4.50;99.90;;;;;;5056368;28;20207;-79
2021/03/16 02:03:18;;;;;;;6.45;5.43;;;4.40;99.90;;;;;;5055460;28;20736;-79
2021/03/16 02:05:44;;;;;;;7.82;6.00;;;4.40;99.90;;;;;;5056175;28;20233;-79
2021/03/16 02:08:18;;;;;;;10.30;6.20;;;4.50;99.90;;;;;;5055709;28;20258;-79
2021/03/16 02:10:54;;;;;;;9.65;6.60;;;4.40;99.90;;;;;;5056229;28;20193;-80
2021/03/16 02:13:25;;;;;;;5.35;4.82;;;4.40;99.90;;;;;;5056341;28;20276;-78
2021/03/16 02:15:58;;;;;;;5.65;4.25;;;4.40;99.90;;;;;;5065992;28;20266;-78
2021/03/16 02:18:30;;;;;;;8.43;5.45;;;4.30;99.90;;;;;;5073982;28;20198;-78
2021/03/16 02:21:05;;;;;;;7.20;4.75;;;4.40;99.90;;;;;;5071832;28;20183;-78
2021/03/16 02:23:42;;;;;;;4.60;4.20;;;4.40;99.90;;;;;;5072520;28;20249;-78
2021/03/16 02:26:15;;;;;;;6.93;6.22;;;4.40;99.90;;;;;;5072157;28;20262;-78
2021/03/16 02:29:06;;;;;;;9.25;5.90;;;4.30;99.90;;;;;;5065970;28;20195;-78
2021/03/16 02:31:33;;;;;;;8.80;4.88;;;4.40;99.90;;;;;;5060607;28;20217;-79
2021/03/16 02:34:03;;;;;;;5.30;4.80;;;4.30;99.90;;;;;;5059566;28;20708;-78
2021/03/16 02:36:32;;;;;;;5.63;3.92;;;4.30;99.90;;;;;;5059927;28;20624;-78
2021/03/16 02:39:01;;;;;;;5.63;5.10;;;4.30;99.90;;;;;;5058657;28;20273;-80
2021/03/16 02:41:29;;;;;;;5.00;4.43;;;4.30;99.90;;;;;;5058978;28;20273;-79
2021/03/16 02:43:55;;;;;;;5.05;4.45;;;4.20;99.90;;;;;;5059861;28;20313;-79
2021/03/16 02:46:24;;;;;;;3.80;3.38;;;4.30;99.90;;;;;;5072901;28;20229;-78
2021/03/16 02:48:51;;;;;;;4.50;4.05;;;4.30;99.90;;;;;;5075020;28;20214;-78
2021/03/16 02:51:18;;;;;;;6.03;4.95;;;4.30;99.90;;;;;;5074690;28;20203;-78
2021/03/16 02:53:46;;;;;;;4.93;4.35;;;4.20;99.90;;;;;;5073016;28;20230;-78
2021/03/16 02:56:14;;;;;;;2.55;2.35;;;4.20;99.90;;;;;;5069870;28;20199;-78
2021/03/16 02:58:42;;;;;;;4.43;3.47;;;4.30;99.90;;;;;;5068400;28;20260;-77
2021/03/16 03:01:09;;;;;;;4.28;3.88;;;4.30;99.90;;;;;;5068744;28;20203;-77
2021/03/16 03:03:37;;;;;;;6.13;4.05;;;4.20;99.90;;;;;;5070646;28;20227;-78
2021/03/16 03:06:04;;;;;;;4.97;4.50;;;4.30;99.90;;;;;;5068445;28;20214;-79
2021/03/16 03:08:33;;;;;;;5.50;4.13;;;4.30;99.90;;;;;;5067478;28;20598;-79
2021/03/16 03:10:59;;;;;;;3.85;3.45;;;4.20;99.90;;;;;;5072154;28;20203;-79
2021/03/16 03:13:25;;;;;;;6.15;4.80;;;4.30;99.90;;;;;;5067257;28;20226;-79
2021/03/16 03:15:52;;;;;;;5.03;3.83;;;4.30;99.90;;;;;;5059890;28;20239;-79
2021/03/16 03:18:19;;;;;;;5.68;4.13;;;4.30;99.90;;;;;;5059673;28;20241;-79
2021/03/16 03:20:46;;;;;;;3.80;3.60;;;4.20;99.90;;;;;;5067823;28;20229;-78
2021/03/16 03:23:22;;;;;;;4.95;4.55;;;4.20;99.90;;;;;;5082644;23;20234;-88
2021/03/16 03:25:55;;;;;;;5.53;4.65;;;4.20;99.90;;;;;;5054739;28;20428;-87
2021/03/16 03:28:25;;;;;;;21.55;13.45;;;4.20;99.90;;;;;;5056344;28;20214;-87
2021/03/16 03:30:52;;;;;;;7.57;5.20;;;4.10;99.90;;;;;;5049226;28;20200;-87
2021/03/16 03:33:39;;;;;;;5.90;5.28;;;4.10;99.90;;;;;;5041684;28;20480;-87
2021/03/16 03:36:07;;;;;;;6.80;4.28;;;3.50;99.90;;;;;;5043161;28;20958;-87
2021/03/16 03:38:40;;;;;;;6.47;5.00;;;4.60;99.90;;;;;;5044325;28;20574;-85
2021/03/16 03:41:10;;;;;;;4.95;4.35;;;4.00;99.90;;;;;;5041855;28;20188;-87
2021/03/16 03:43:47;;;;;;;4.40;4.00;;;4.00;99.90;;;;;;5042043;28;20219;-86
2021/03/16 03:46:22;;;;;;;4.30;3.88;;;4.10;99.90;;;;;;5054294;28;20207;-87
2021/03/16 03:48:59;;;;;;;4.03;3.72;;;4.00;99.90;;;;;;5057529;28;20210;-87
2021/03/16 03:51:48;;;;;;;7.95;4.40;;;4.00;99.90;;;;;;5049650;28;20270;-87
2021/03/16 03:54:19;;;;;;;6.32;4.43;;;4.00;99.90;;;;;;5042977;28;20242;-86
2021/03/16 03:56:46;;;;;;;4.43;4.10;;;;;;;;;;5042841;28;20595;-87
2021/03/16 03:59:17;;;;;;;9.50;5.45;;;4.00;99.90;;;;;;5040098;28;20196;-87
2021/03/16 04:01:43;;;;;;;8.20;4.30;;;;;;;;;;5041807;28;20609;-86
2021/03/16 04:04:10;;;;;;;4.88;4.25;;;;;;;;;;5040121;28;20223;-86
2021/03/16 04:06:37;;;;;;;6.30;3.97;;;4.00;99.90;;;;;;5040487;28;20277;-86
2021/03/16 04:09:05;;;;;;;5.60;4.28;;;4.10;99.90;;;;;;5040658;28;20266;-87
2021/03/16 04:11:32;;;;;;;5.88;3.80;;;;;;;;;;5040757;28;20234;-87
2021/03/16 04:13:59;;;;;;;5.00;3.60;;;;;;;;;;5039690;28;20449;-87
2021/03/16 04:16:26;;;;;;;6.03;4.10;;;;;;;;;;5043623;28;20505;-86
2021/03/16 04:18:54;;;;;;;5.28;3.38;;;4.20;99.90;;;;;;5054856;28;20209;-86
2021/03/16 04:21:20;;;;;;;4.10;3.22;;;4.10;99.90;;;;;;5058196;28;20544;-86
2021/03/16 04:23:51;;;;;;;8.20;4.05;;;4.10;99.90;;;;;;5058084;28;20278;-87
2021/03/16 04:26:17;;;;;;;4.68;4.03;;;;;;;;;;5057890;28;20203;-87
2021/03/16 04:28:44;;;;;;;5.50;3.55;;;;;;;;;;5054421;28;20245;-87
2021/03/16 04:31:11;;;;;;;4.80;4.05;;;;;;;;;;5045814;28;20270;-87
2021/03/16 04:33:37;;;;;;;5.13;3.38;;;;;;;;;;5042975;28;20227;-87
2021/03/16 04:36:05;;;;;;;4.35;3.88;;;4.60;99.90;;;;;;5043191;28;20266;-86
2021/03/16 04:38:31;;;;;;;5.97;3.35;;;4.30;99.90;;;;;;5041504;28;20265;-86
2021/03/16 04:40:59;;;;;;;4.60;4.00;;;4.10;99.90;;;;;;5037706;28;20203;-87
2021/03/16 04:43:25;;;;;;;6.20;3.20;;;;;;;;;;5037634;28;20235;-88
2021/03/16 04:45:52;;;;;;;7.18;3.88;;;;;;;;;;5036630;28;20203;-87
2021/03/16 04:48:19;;;;;;;5.47;4.95;;;;;;;;;;5037210;28;20250;-87
2021/03/16 04:50:46;;;;;;;5.40;4.18;;;;;;;;;;5037609;28;20199;-87
2021/03/16 04:53:12;;;;;;;5.88;3.53;;;;;;;;;;5038150;28;20234;-87
2021/03/16 04:55:39;;;;;;;4.30;3.97;;;;;;;;;;5036205;28;20257;-87
2021/03/16 04:58:06;;;;;;;7.15;4.43;;;;;;;;;;5036333;28;20200;-87
2021/03/16 05:00:32;;;;;;;5.60;3.80;;;;;;;;;;5035446;28;20563;-87
2021/03/16 05:02:59;;;;;;;6.03;4.10;;;4.20;99.90;;;;;;5036259;28;20449;-86
2021/03/16 05:05:25;;;;;;;6.38;4.10;;;;;;;;;;5037427;28;20226;-86
2021/03/16 05:07:51;;;;;;;4.28;3.47;;;3.90;99.90;;;;;;5037241;28;20936;-87
2021/03/16 05:10:18;;;;;;;9.65;4.28;;;4.10;99.90;;;;;;5038167;28;20196;-87
2021/03/16 05:12:44;;;;;;;4.82;3.38;;;4.00;99.90;;;;;;5036911;28;20224;-87
2021/03/16 05:15:13;;;;;;;5.68;4.80;;;4.10;99.90;;;;;;5038021;28;20203;-87
2021/03/16 05:17:39;;;;;;;8.02;4.47;;;4.10;99.90;;;;;;5037069;28;20203;-87
2021/03/16 05:20:06;;;;;;;5.57;4.28;;;3.30;99.90;;;;;;5038329;28;20214;-86
2021/03/16 05:22:33;;;;;;;3.83;3.53;;;4.00;99.90;;;;;;5041169;28;20215;-87
2021/03/16 05:24:59;;;;;;;4.90;4.18;;;4.10;99.90;;;;;;5045011;28;20202;-87
2021/03/16 05:27:25;;;;;;;8.25;4.78;;;4.10;99.90;;;;;;5043147;28;20223;-86
2021/03/16 05:29:51;;;;;;;4.68;3.85;;;4.10;99.90;;;;;;5052028;28;20203;-86
2021/03/16 05:32:19;;;;;;;5.07;2.50;;;4.00;99.90;;;;;;5054289;28;20192;-88
2021/03/16 05:34:45;;;;;;;6.43;4.03;;;4.00;99.90;;;;;;5056833;28;20199;-86
2021/03/16 05:37:12;;;;;;;5.75;3.70;;;4.00;99.90;;;;;;5055946;28;20207;-86
2021/03/16 05:39:38;;;;;;;4.60;3.38;;;4.20;99.90;;;;;;5052793;28;20234;-87
2021/03/16 05:42:06;;;;;;;4.30;3.80;;;4.30;99.90;;;;;;5056284;28;20226;-87
2021/03/16 05:44:32;;;;;;;5.20;4.00;;;3.90;99.90;;;;;;5056778;28;20227;-87
2021/03/16 05:47:01;;;;;;;5.55;3.42;;;4.00;99.90;;;;;;5053625;28;20223;-87
2021/03/16 05:49:30;;;;;;;3.22;3.00;;;4.10;99.90;;;;;;5043180;28;20207;-87
2021/03/16 05:51:58;;;;;;;2.17;1.98;;;3.90;99.90;;;;;;5050702;28;20257;-87
2021/03/16 05:54:24;;;;;;;3.75;2.30;;;4.10;99.90;;;;;;5055915;28;20207;-86
2021/03/16 05:56:51;;;;;;;2.97;2.55;;;4.40;99.90;;;;;;5059467;28;20214;-88
2021/03/16 05:59:18;;;;;;;3.00;2.78;;;;;;;;;;5059015;28;20208;-86
2021/03/16 06:01:44;;;;;;;4.80;3.28;;;4.10;99.90;;;;;;5059014;28;20285;-87
2021/03/16 06:04:10;;;;;;;2.10;1.83;;;4.30;99.90;;;;;;5059935;28;20222;-87
2021/03/16 06:06:39;;;;;;;6.95;3.88;;;4.20;99.90;;;;;;5059076;28;20207;-87
2021/03/16 06:09:06;;;;;;;6.38;4.07;;;4.10;99.90;;;;;;5057892;28;20207;-86
2021/03/16 06:11:34;;;;;;;4.93;3.55;;;4.10;99.90;;;;;;5055398;28;20192;-87
2021/03/16 06:14:00;;;;;;;6.78;4.55;;;4.10;99.90;;;;;;5047873;28;20227;-87
2021/03/16 06:16:43;;;;;;;4.90;3.55;;;4.10;99.90;;;;;;5048485;28;20208;-87
2021/03/16 06:19:14;;;;;;;5.85;3.85;;;4.10;99.90;;;;;;5049964;28;20196;-87
2021/03/16 06:21:44;;;;;;;5.68;4.07;;;4.10;99.90;;;;;;5048202;28;20214;-86
2021/03/16 06:24:14;;;;;;;4.07;3.60;;;4.10;99.90;;;;;;5046560;28;20235;-87
2021/03/16 06:26:48;;;;;;;6.25;3.72;;;3.90;99.90;;;;;;5044329;28;20207;-87
2021/03/16 06:29:14;;;;;;;5.30;4.22;;;4.10;99.90;;;;;;5044396;28;20200;-87
2021/03/16 06:31:41;;;;;;;9.77;4.15;;;4.10;99.90;;;;;;5045954;28;20218;-89
2021/03/16 06:34:20;;;;;;;4.35;3.90;;;3.60;99.90;;;;;;5047450;28;20258;-89
2021/03/16 06:36:56;;;;;;;6.07;5.00;;;3.90;99.90;;;;;;5053599;28;20211;-91
2021/03/16 06:39:23;;;;;;;6.32;4.68;;;3.90;99.90;;;;;;5059797;28;20184;-89
2021/03/16 06:41:52;;;;;;;7.38;5.60;;;4.00;99.90;;;;;;5049792;28;20244;-87
2021/03/16 06:44:45;;;;;;;6.45;4.90;;;4.10;99.90;;;;;;5046865;28;20306;-89
2021/03/16 06:47:15;;;;;;;7.25;5.20;;;4.00;99.90;;;;;;5046352;28;20219;-88
2021/03/16 06:49:41;;;;;;;7.07;4.50;;;;;;;;;;5047232;28;20286;-88
2021/03/16 06:52:12;;;;;;;4.20;3.05;;;4.10;99.90;;;;;;5043037;28;20195;-87
2021/03/16 06:54:39;;;;;;;5.47;3.80;;;;;;;;;;5042776;28;20295;-88
2021/03/16 06:57:12;;;;;;;5.63;4.65;;;;;;;;;;5044988;28;20204;-88
2021/03/16 06:59:39;;;;;;;4.13;3.63;;;;;;;;;;5048078;28;20222;-88
2021/03/16 07:02:13;;;;;;;11.15;5.63;;;4.20;99.90;;;;;;5056289;28;20192;-88
2021/03/16 07:04:44;;;;;;;6.55;4.72;;;4.10;99.90;;;;;;5058998;28;20230;-88
2021/03/16 07:07:13;;;;;;;3.78;3.40;;;4.20;99.90;;;;;;5058977;28;20263;-90
2021/03/16 07:09:40;;;;;;;12.35;4.15;;;3.90;99.90;;;;;;5058709;28;20196;-88
2021/03/16 07:12:09;;;;;;;5.47;4.03;;;4.20;99.90;;;;;;5051533;28;20203;-86
2021/03/16 07:14:36;;;;;;;2.83;2.63;;;;;;;;;;5050630;28;20224;-87
2021/03/16 07:17:13;;;;;;;4.32;3.00;;;4.20;99.90;;;;;;5047060;28;20210;-87
2021/03/16 07:19:52;;;;;;;5.40;4.07;;;4.10;99.90;;;;;;5044863;28;20186;-88
2021/03/16 07:22:22;;;;;;;3.33;3.03;;;4.20;99.90;;;;;;5043128;28;20199;-88
2021/03/16 07:24:50;;;;;;;7.90;4.03;;;;;;;;;;5043634;28;20605;-88
2021/03/16 07:27:17;;;;;;;4.50;4.10;;;;;;;;;;5041714;28;20223;-88
2021/03/16 07:29:46;;;;;;;8.93;4.50;;;;;;;;;;5041523;28;20203;-88
2021/03/16 07:32:17;;;;;;;8.57;5.05;;;5.20;99.90;;;;;;5043644;28;20258;-87
2021/03/16 07:34:44;;;;;;;5.47;3.83;;;;;;;;;;5043560;28;20346;-87
2021/03/16 07:37:14;;;;;;;8.75;4.68;;;4.40;99.90;;;;;;5041706;28;20627;-88
2021/03/16 07:40:12;;;;;;;5.47;4.63;;;4.50;99.90;;;;;;5040283;28;20207;-88
2021/03/16 07:42:41;;;;;;;5.43;3.83;;;4.50;99.90;;;;;;5041917;28;20224;-88
2021/03/16 07:45:35;;;;;;;5.72;5.05;;;4.00;99.90;;;;;;5044285;28;20204;-87
2021/03/16 07:48:02;;;;;;;7.18;4.40;;;;;;;;;;5043976;28;20230;-87
2021/03/16 07:50:30;;;;;;;11.52;5.28;;;4.60;99.90;;;;;;5041536;28;20211;-88
2021/03/16 07:52:58;;;;;;;9.20;5.43;;;;;;;;;;5044353;28;20227;-87
2021/03/16 07:55:28;;;;;;;7.78;5.15;;;4.50;99.90;;;;;;5052540;28;20276;-87
2021/03/16 07:57:54;;;;;;;6.65;4.07;;;;;;;;;;5055060;28;20255;-86
2021/03/16 08:00:38;;;;;;;7.55;5.05;;;4.40;99.90;;;;;;5055476;28;20208;-87
2021/03/16 08:03:10;;;;;;;7.35;4.88;;;;;;;;;;5055967;28;20734;-87
2021/03/16 08:05:44;;;;;;;7.75;4.25;;;4.60;99.90;;;;;;5050602;28;20212;-88
2021/03/16 08:08:15;;;;;;;5.20;4.55;;;4.70;99.90;;;;;;5051953;28;20283;-87
2021/03/16 08:10:44;;;;;;;4.55;3.20;;;4.50;99.90;;;;;;5054358;28;20257;-87
2021/03/16 08:19:37;;;;;;;9.10;5.07;;;4.60;99.90;;;;;;5052248;28;20226;-87
2021/03/16 08:22:13;;;;;;;6.28;4.00;;;4.50;99.90;;;;;;4988272;28;20643;-88
2021/03/16 08:24:42;;;;;;;6.00;3.20;;;6.60;99.90;;;;;;5022645;28;20207;-87
2021/03/16 08:27:17;;;;;;;4.70;4.13;;;4.30;99.90;;;;;;5023851;28;20216;-88
2021/03/16 08:29:45;;;;;;;5.40;2.78;;;4.40;99.90;;;;;;5020115;28;20219;-88
2021/03/16 08:32:14;;;;;;;9.10;3.28;;;4.30;99.90;;;;;;5018996;28;20208;-88
2021/03/16 08:34:42;;;;;;;4.40;3.30;;;5.90;99.90;;;;;;5019158;28;20282;-87
2021/03/16 08:37:19;;;;;;;3.92;3.58;;;4.40;99.90;;;;;;5020150;28;20593;-88
2021/03/16 08:39:47;;;;;;;5.97;3.85;;;4.50;99.90;;;;;;5022771;28;20233;-88
2021/03/16 08:42:24;;;;;;;3.05;2.42;;;4.40;99.90;;;;;;5020378;28;20208;-89
2021/03/16 08:44:54;;;;;;;3.70;3.10;;;;;;;;;;5019378;28;20208;-88
2021/03/16 08:47:23;;;;;;;4.43;3.97;;;4.40;99.90;;;;;;5019975;28;20710;-87
2021/03/16 08:49:51;;;;;;;6.07;3.28;;;5.60;99.90;;;;;;5019979;28;20204;-87
2021/03/16 08:52:19;;;;;;;4.57;3.33;;;4.50;99.90;;;;;;5022352;28;20231;-87
2021/03/16 08:54:46;;;;;;;8.27;3.60;;;;;;;;;;5022998;28;20208;-87
2021/03/16 08:57:18;;;;;;;4.25;3.08;;;4.60;99.90;;;;;;5021607;28;20203;-87
2021/03/16 08:59:47;;;;;;;4.28;3.90;;;4.30;99.90;;;;;;5021307;28;20231;-87
2021/03/16 09:02:21;;;;;;;8.07;4.50;;;4.90;99.90;;;;;;5018737;28;20272;-87
2021/03/16 09:04:48;;;;;;;6.25;4.45;;;;;;;;;;5018235;28;20199;-87
2021/03/16 09:07:40;;;;;;;;;;;;;;;;;;;;;
2021/03/16 09:10:09;;;;;;;5.72;4.20;;;4.80;99.90;;;;;;5019368;28;20287;-87
2021/03/16 09:12:41;;;;;;;5.72;3.75;;;4.90;99.90;;;;;;5024752;28;20275;-87
2021/03/16 09:15:12;;;;;;;26.05;13.77;;;;;;;;;;5025548;28;20216;-88
2021/03/16 09:17:40;;;;;;;4.40;4.00;;;5.00;99.90;;;;;;5023343;28;20536;-87
2021/03/16 09:20:21;;;;;;;4.65;4.20;;;5.10;99.90;;;;;;5024297;28;20207;-87
2021/03/16 09:22:53;;;;;;;10.65;4.45;;;3.60;99.90;;;;;;5025722;28;20616;-88
2021/03/16 09:25:19;;;;;;;8.55;4.38;;;5.20;99.90;;;;;;5028555;28;20193;-87
2021/03/16 09:27:49;;;;;;;5.18;3.33;;;5.30;99.90;;;;;;5028817;28;20224;-88
2021/03/16 09:30:17;;;;;;;11.20;3.70;;;5.30;99.90;;;;;;5025491;28;20200;-87
2021/03/16 09:32:47;;;;;;;8.40;3.85;;;5.00;99.90;;;;;;5024575;28;20255;-87
2021/03/16 09:35:17;;;;;;;6.82;4.10;;;4.90;99.90;;;;;;5018591;28;20659;-87
2021/03/16 09:37:45;;;;;;;8.18;4.05;;;4.90;99.90;;;;;;5019686;28;20635;-88
2021/03/16 09:40:13;;;;;;;3.33;2.05;;;5.10;99.90;;;;;;5020248;28;20212;-88
2021/03/16 09:42:41;;;;;;;4.65;3.45;;;5.60;99.90;;;;;;5020077;28;20224;-88
2021/03/16 09:45:17;;;;;;;9.50;3.60;;;4.90;99.90;;;;;;5023077;28;20208;-88
2021/03/16 09:47:43;;;;;;;4.43;3.30;;;;;;;;;;5031077;28;20220;-88
2021/03/16 09:50:14;;;;;;;5.00;3.42;;;5.20;99.90;;;;;;5035680;28;20188;-88
2021/03/16 09:52:41;;;;;;;3.00;2.80;;;5.10;99.90;;;;;;5037328;28;20216;-88
2021/03/16 09:55:09;;;;;;;5.05;3.80;;;5.30;99.90;;;;;;5036831;28;20212;-88
2021/03/16 09:57:37;;;;;;;5.03;3.15;;;5.40;99.90;;;;;;5034835;28;20201;-88
2021/03/16 10:00:08;;;;;;;3.45;2.38;;;6.00;99.90;;;;;;5030558;28;20200;-88
2021/03/16 10:02:41;;;;;;;4.35;2.92;;;5.80;99.90;;;;;;5028743;28;20624;-88
2021/03/16 10:05:12;;;;;;;3.92;2.50;;;5.60;99.90;;;;;;5028392;28;20200;-88
2021/03/16 10:07:40;;;;;;;4.05;3.30;;;5.60;99.90;;;;;;5025417;28;20220;-87
2021/03/16 10:10:15;;;;;;;4.45;3.35;;;5.50;99.90;;;;;;5025226;28;20211;-89
2021/03/16 10:12:57;;;;;;;3.00;2.40;;;5.80;99.90;;;;;;5024143;28;20211;-88
2021/03/16 10:15:28;;;;;;;2.05;1.95;;;5.90;99.90;;;;;;5030654;28;20220;-88
2021/03/16 10:18:03;;;;;;;3.65;2.75;;;5.70;99.90;;;;;;5034375;28;20196;-88
2021/03/16 10:20:36;;;;;;;9.70;3.53;;;5.20;99.90;;;;;;5037542;28;20200;-87
2021/03/16 10:23:05;;;;;;;2.75;2.20;;;5.70;99.90;;;;;;5037409;28;20228;-87
2021/03/16 10:25:37;;;;;;;4.65;2.65;;;5.70;99.90;;;;;;5036233;28;20189;-87
2021/03/16 10:28:06;;;;;;;4.30;2.15;;;5.90;99.90;;;;;;5037707;28;20220;-87
2021/03/16 10:30:40;;;;;;;2.58;2.22;;;5.90;99.90;;;;;;5037944;28;20199;-87
2021/03/16 10:33:09;;;;;;;1.13;1.00;;;5.80;99.90;;;;;;5037457;28;20246;-87
2021/03/16 10:35:44;;;;;;;5.10;1.92;;;5.70;99.90;;;;;;5037547;28;20276;-87
2021/03/16 10:38:11;;;;;;;2.28;2.13;;;;;;;;;;5038908;28;20207;-88
2021/03/16 10:40:38;;;;;;;4.20;3.17;;;;;;;;;;5040707;28;20191;-88
2021/03/16 10:43:04;;;;;;;19.83;5.90;;;5.90;99.90;;;;;;5040452;28;20212;-87
2021/03/16 10:45:31;;;;;;;4.00;2.78;;;;;;;;;;5040943;28;20205;-87
2021/03/16 10:47:58;;;;;;;2.83;2.63;;;;;;;;;;5040060;28;20212;-87
2021/03/16 10:50:28;;;;;;;6.45;3.60;;;6.10;99.90;;;;;;5038201;28;20203;-88
2021/03/16 10:52:55;;;;;;;11.70;4.43;;;;;;;;;;5034360;28;20220;-88
2021/03/16 10:55:22;;;;;;;3.05;2.15;;;;;;;;;;5038438;28;20200;-88
2021/03/16 10:57:57;;;;;;;4.07;3.35;;;;;;;;;;5039694;28;20188;-88
2021/03/16 11:00:38;;;;;;;5.68;3.60;;;6.20;99.90;;;;;;5040607;28;20200;-88
2021/03/16 11:03:23;;;;;;;2.92;2.63;;;6.20;99.90;;;;;;5036450;28;20232;-88
2021/03/16 11:06:04;;;;;;;5.53;3.67;;;6.30;99.90;;;;;;5036980;28;20220;-88
2021/03/16 11:08:40;;;;;;;3.60;2.20;;;6.40;99.90;;;;;;5039669;28;20200;-87
2021/03/16 11:11:24;;;;;;;2.25;1.60;;;6.40;99.90;;;;;;5040644;28;20188;-87
2021/03/16 11:13:51;;;;;;;2.50;2.25;;;;;;;;;;5039724;28;20216;-88
2021/03/16 11:16:27;;;;;;;2.97;2.75;;;;;;;;;;5040436;28;20173;-88
2021/03/16 11:18:55;;;;;;;3.13;2.00;;;6.40;99.90;;;;;;5040364;28;20359;-86
2021/03/16 11:21:29;;;;;;;2.28;2.17;;;6.40;99.90;;;;;;5040260;28;20236;-87
2021/03/16 11:23:56;;;;;;;2.50;2.15;;;;;;;;;;5038715;28;20218;-87
2021/03/16 11:26:39;;;;;;;;;;;;;;;;;;;;;
2021/03/16 11:29:44;;;;;;;3.75;3.10;;;6.50;99.90;;;;;;5035787;28;20207;-88
2021/03/16 11:32:13;;;;;;;3.70;2.33;;;7.20;99.90;;;;;;5036390;28;20255;-89
2021/03/16 11:34:51;;;;;;;2.95;2.25;;;7.00;99.90;;;;;;5038069;28;20217;-89
2021/03/16 11:37:35;;;;;;;3.38;2.92;;;7.10;99.90;;;;;;5039419;28;20195;-88
2021/03/16 11:40:02;;;;;;;5.78;2.30;;;;;;;;;;5039817;28;20180;-87
2021/03/16 11:42:58;;;;;;;3.67;3.03;;;6.70;99.90;;;;;;5039191;28;20193;-88
2021/03/16 11:45:35;;;;;;;2.55;2.38;;;6.80;99.90;;;;;;5033820;28;20233;-89
2021/03/16 11:51:06;;;;;;;4.78;2.00;;;7.00;99.90;;;;;;5028088;28;20215;-88
2021/03/16 11:53:37;;;;;;;2.00;1.75;;;7.00;99.90;;;;;;5030977;28;20232;-88
2021/03/16 11:56:04;;;;;;;2.60;2.40;;;7.00;99.90;;;;;;5029633;28;20659;-89
2021/03/16 11:58:34;;;;;;;3.13;2.50;;;6.80;99.90;;;;;;5031477;28;20204;-88
2021/03/16 12:01:02;;;;;;;4.05;2.70;;;7.00;99.90;;;;;;5025095;28;20529;-88
2021/03/16 12:06:16;;;;;;;3.00;2.70;;;;;;;;;;5021117;28;20211;-88
2021/03/16 12:08:54;;;;;;;3.03;2.78;;;7.10;99.90;;;;;;5021617;28;20243;-88
2021/03/16 12:11:21;;;;;;;3.95;3.00;;;;;;;;;;5022843;28;20579;-88
2021/03/16 12:13:51;;;;;;;6.43;3.88;;;;;;;;;;5020501;28;20232;-87
2021/03/16 12:16:18;;;;;;;4.13;3.45;;;;;;;;;;5021693;28;20219;-88
2021/03/16 12:19:04;;;;;;;6.85;5.30;;;7.20;99.90;;;;;;5021515;28;20204;-88
2021/03/16 12:21:47;;;;;;;;;;;;;;;;;;;;;
2021/03/16 12:24:15;;;;;;;4.53;3.58;;;7.20;99.90;;;;;;5019964;28;20231;-88
2021/03/16 12:26:48;;;;;;;7.78;3.53;;;7.30;99.90;;;;;;5020484;28;20212;-88
2021/03/16 12:29:17;;;;;;;4.57;3.90;;;;;;;;;;5020039;28;20223;-88
2021/03/16 12:31:47;;;;;;;8.52;4.45;;;7.50;99.90;;;;;;5020240;28;20204;-89
2021/03/16 12:34:13;;;;;;;4.28;3.78;;;7.20;99.90;;;;;;5020205;28;20318;-88
2021/03/16 12:37:06;;;;;;;6.60;4.53;;;7.20;99.90;;;;;;5019524;28;20204;-87
2021/03/16 12:39:34;;;;;;;4.50;3.80;;;7.20;99.90;;;;;;5005032;28;20252;-88
2021/03/16 12:42:05;;;;;;;8.20;5.40;;;7.10;99.90;;;;;;5021127;28;20204;-87
2021/03/16 12:44:37;;;;;;;5.63;3.72;;;6.90;99.90;;;;;;5019544;28;20346;-89
2021/03/16 12:47:06;;;;;;;6.22;4.40;;;6.80;99.90;;;;;;5018986;28;20216;-88
2021/03/16 12:49:34;;;;;;;4.88;4.35;;;;;;;;;;5018202;28;20204;-88
2021/03/16 12:52:01;;;;;;;5.70;4.90;;;;;;;;;;5019477;28;20208;-87
2021/03/16 12:54:28;;;;;;;5.93;3.90;;;;;;;;;;5020815;28;20319;-88
2021/03/16 12:56:57;;;;;;;10.25;4.38;;;7.00;99.90;;;;;;5023235;28;20223;-88
2021/03/16 12:59:33;;;;;;;5.32;3.15;;;7.00;99.90;;;;;;5023613;28;20208;-88
2021/03/16 13:02:09;;;;;;;4.32;3.53;;;7.10;99.90;;;;;;5025879;28;20251;-87
2021/03/16 13:04:50;;;;;;;5.15;3.88;;;7.10;99.90;;;;;;5028359;28;20247;-88
2021/03/16 13:07:28;;;;;;;5.38;3.30;;;7.10;99.90;;;;;;5027106;28;20589;-88
2021/03/16 13:10:03;;;;;;;6.72;3.25;;;7.10;99.90;;;;;;5021255;28;20599;-88
2021/03/16 13:12:44;;;;;;;4.15;3.75;;;7.20;99.90;;;;;;5023830;28;20622;-88
2021/03/16 13:18:09;;;;;;;3.78;3.08;;;7.20;99.90;;;;;;4985136;28;20216;-87
2021/03/16 13:20:50;;;;;;;4.78;2.75;;;7.20;99.90;;;;;;5021606;28;20215;-88
2021/03/16 13:23:44;;;;;;;4.30;2.25;;;7.30;99.90;;;;;;5020295;28;20224;-88
2021/03/16 13:26:21;;;;;;;1.83;1.73;;;7.10;99.90;;;;;;5020917;28;20208;-88
2021/03/16 13:29:05;;;;;;;2.95;2.65;;;7.30;99.90;;;;;;5023815;28;20236;-88
2021/03/16 13:31:34;;;;;;;2.97;2.78;;;;;;;;;;5022670;28;20181;-88
2021/03/16 13:34:12;;;;;;;2.92;2.28;;;7.30;99.90;;;;;;5023067;28;20236;-87
2021/03/16 13:36:54;;;;;;;3.65;2.67;;;7.40;99.90;;;;;;5022588;28;20206;-88
2021/03/16 13:39:30;;;;;;;2.90;2.60;;;;;;;;;;5024556;28;20228;-88
2021/03/16 13:42:30;;;;;;;6.20;2.58;;;7.50;99.90;;;;;;5020706;28;20220;-89
2021/03/16 13:45:28;;;;;;;2.90;2.63;;;7.50;99.90;;;;;;5021947;28;20255;-87
2021/03/16 13:48:19;;;;;;;2.35;2.15;;;7.40;99.90;;;;;;5019922;28;20220;-88
2021/03/16 13:51:03;;;;;;;3.50;3.20;;;7.30;99.90;;;;;;5019740;28;20247;-88